createdAt,value
2023-01-25T00:03:07.639Z,102077.19
2023-01-25T00:06:22.599Z,102079.09
2023-01-25T00:09:31.283Z,102079.16
2023-01-25T00:12:45.572Z,102085.25
2023-01-25T00:16:03.240Z,102089.72
2023-01-25T00:19:18.622Z,102096.84
2023-01-25T00:22:33.611Z,102099.56
2023-01-25T00:25:35.694Z,102102.97
2023-01-25T00:29:01.610Z,102095.31
2023-01-25T00:32:29.851Z,102097.81
2023-01-25T00:35:45.571Z,102100.41
2023-01-25T00:38:54.763Z,102096.88
2023-01-25T00:42:03.634Z,102096.19
2023-01-25T00:45:12.637Z,102096.19
2023-01-25T00:48:21.168Z,102098.13
2023-01-25T00:51:30.632Z,102094.81
2023-01-25T00:54:39.477Z,102087.56
2023-01-25T00:57:47.630Z,102092.00
2023-01-25T01:01:03.625Z,102096.41
2023-01-25T01:04:06.591Z,102097.19
2023-01-25T01:07:21.612Z,102105.09
2023-01-25T01:10:23.456Z,102103.66
2023-01-25T01:13:38.616Z,102102.59
2023-01-25T01:16:41.041Z,102112.31
2023-01-25T01:19:55.591Z,102111.28
2023-01-25T01:23:03.609Z,102115.06
2023-01-25T01:26:14.964Z,102110.00
2023-01-25T01:29:23.644Z,102109.16
2023-01-25T01:32:32.436Z,102109.34
2023-01-25T01:35:40.686Z,102107.63
2023-01-25T01:38:56.733Z,102110.63
2023-01-25T01:41:58.613Z,102110.69
2023-01-25T01:45:33.684Z,102109.88
2023-01-25T01:49:01.313Z,102117.06
2023-01-25T01:52:22.673Z,102105.91
2023-01-25T01:55:31.642Z,102106.16
2023-01-25T01:58:42.462Z,102101.47
2023-01-25T02:01:51.660Z,102103.75
2023-01-25T02:05:03.712Z,102104.63
2023-01-25T02:08:14.628Z,102096.62
2023-01-25T02:11:32.665Z,102093.19
2023-01-25T02:14:48.408Z,102092.25
2023-01-25T02:18:02.649Z,102095.69
2023-01-25T02:21:12.095Z,102091.72
2023-01-25T02:24:32.636Z,102095.94
2023-01-25T02:27:38.031Z,102087.78
2023-01-25T02:30:54.686Z,102099.69
2023-01-25T02:33:56.521Z,102094.34
2023-01-25T02:37:11.633Z,102087.78
2023-01-25T02:40:19.652Z,102078.94
2023-01-25T02:43:31.481Z,102075.31
2023-01-25T02:46:41.664Z,102064.88
2023-01-25T02:49:50.509Z,102063.66
2023-01-25T02:52:58.702Z,102059.69
2023-01-25T02:56:14.750Z,102062.56
2023-01-25T02:59:16.573Z,102046.81
2023-01-25T03:02:31.691Z,102051.34
2023-01-25T03:05:33.714Z,102048.72
2023-01-25T03:08:49.635Z,102044.22
2023-01-25T03:12:04.701Z,102055.94
2023-01-25T03:15:13.003Z,102052.41
2023-01-25T03:18:28.639Z,102054.78
2023-01-25T03:21:37.648Z,102043.28
2023-01-25T03:24:45.736Z,102044.00
2023-01-25T03:28:00.672Z,102040.41
2023-01-25T03:31:03.219Z,102040.75
2023-01-25T03:34:17.762Z,102038.75
2023-01-25T03:37:26.329Z,102047.59
2023-01-25T03:40:41.695Z,102045.81
2023-01-25T03:43:49.650Z,102048.03
2023-01-25T03:46:58.340Z,102051.56
2023-01-25T03:50:06.692Z,102050.47
2023-01-25T03:53:25.660Z,102045.53
2023-01-25T03:56:33.716Z,102049.59
2023-01-25T03:59:42.551Z,102036.38
2023-01-25T04:02:50.663Z,102035.25
2023-01-25T04:06:06.747Z,102044.38
2023-01-25T04:09:08.783Z,102044.16
2023-01-25T04:12:24.698Z,102043.91
2023-01-25T04:15:33.004Z,102050.31
2023-01-25T04:18:47.678Z,102050.59
2023-01-25T04:21:49.680Z,102054.91
2023-01-25T04:25:04.729Z,102053.75
2023-01-25T04:28:12.692Z,102061.31
2023-01-25T04:31:21.558Z,102054.66
2023-01-25T04:34:29.691Z,102054.50
2023-01-25T04:37:38.379Z,102059.97
2023-01-25T04:40:47.742Z,102058.31
2023-01-25T04:44:02.696Z,102060.28
2023-01-25T04:47:10.696Z,102069.22
2023-01-25T04:50:25.737Z,102061.41
2023-01-25T04:53:37.257Z,102063.19
2023-01-25T04:56:51.726Z,102062.69
2023-01-25T05:00:00.420Z,102063.63
2023-01-25T05:03:09.708Z,102064.56
2023-01-25T05:06:24.736Z,102066.28
2023-01-25T05:09:26.561Z,102057.44
2023-01-25T05:12:41.692Z,102059.88
2023-01-25T05:15:50.029Z,102063.34
2023-01-25T05:19:04.729Z,102071.09
2023-01-25T05:22:12.692Z,102061.41
2023-01-25T05:25:21.403Z,102059.78
2023-01-25T05:28:29.735Z,102056.97
2023-01-25T05:31:38.480Z,102055.50
2023-01-25T05:34:47.691Z,102068.28
2023-01-25T05:38:04.776Z,102058.69
2023-01-25T05:41:07.589Z,102061.34
2023-01-25T05:44:23.712Z,102058.53
2023-01-25T05:47:25.648Z,102060.84
2023-01-25T05:50:41.769Z,102055.09
2023-01-25T05:53:43.592Z,102052.06
2023-01-25T05:56:58.710Z,102057.16
2023-01-25T06:00:14.736Z,102060.06
2023-01-25T06:03:23.539Z,102059.63
2023-01-25T06:06:38.692Z,102053.72
2023-01-25T06:09:40.506Z,102062.84
2023-01-25T06:12:55.784Z,102075.22
2023-01-25T06:16:10.777Z,102071.78
2023-01-25T06:19:19.295Z,102055.62
2023-01-25T06:22:33.744Z,102072.59
2023-01-25T06:25:35.633Z,102084.81
2023-01-25T06:28:52.666Z,102086.34
2023-01-25T06:32:01.760Z,102088.06
2023-01-25T06:35:16.747Z,102093.47
2023-01-25T06:38:18.692Z,102089.19
2023-01-25T06:41:34.763Z,102093.66
2023-01-25T06:44:43.852Z,102089.00
2023-01-25T06:47:52.378Z,102097.06
2023-01-25T06:51:02.788Z,102101.47
2023-01-25T06:54:17.819Z,102103.09
2023-01-25T06:57:26.388Z,102095.81
2023-01-25T07:00:34.826Z,102093.25
2023-01-25T07:03:43.681Z,102087.41
2023-01-25T07:06:51.797Z,102093.75
2023-01-25T07:10:09.758Z,102095.34
2023-01-25T07:13:24.755Z,102092.06
2023-01-25T07:16:26.855Z,102087.59
2023-01-25T07:19:41.828Z,102093.34
2023-01-25T07:22:53.766Z,102089.47
2023-01-25T07:26:09.801Z,102091.31
2023-01-25T07:29:20.728Z,102081.53
2023-01-25T07:32:35.755Z,102076.88
2023-01-25T07:35:46.476Z,102086.72
2023-01-25T07:39:01.764Z,102084.41
2023-01-25T07:42:16.876Z,102100.56
2023-01-25T07:45:19.700Z,102092.06
2023-01-25T07:48:41.899Z,102096.53
2023-01-25T07:52:06.900Z,102086.69
2023-01-25T07:55:21.723Z,102093.91
2023-01-25T07:59:07.791Z,102094.87
2023-01-25T08:02:16.646Z,102094.53
2023-01-25T08:05:31.784Z,102093.12
2023-01-25T08:08:43.826Z,102090.44
2023-01-25T08:11:52.775Z,102091.31
2023-01-25T08:15:00.800Z,102086.22
2023-01-25T08:18:09.681Z,102090.34
2023-01-25T08:21:18.829Z,102084.59
2023-01-25T08:31:12.798Z,102080.41
2023-01-25T08:34:27.783Z,102080.25
2023-01-25T08:37:42.840Z,102078.09
2023-01-25T08:40:52.788Z,102080.47
2023-01-25T08:44:01.601Z,102078.22
2023-01-25T08:47:09.830Z,102075.84
2023-01-25T08:50:18.844Z,102075.91
2023-01-25T08:53:27.929Z,102079.22
2023-01-25T08:56:47.793Z,102067.87
2023-01-25T08:59:49.653Z,102069.53
2023-01-25T09:03:04.755Z,102071.63
2023-01-25T09:06:13.905Z,102069.66
2023-01-25T09:09:22.769Z,102068.28
2023-01-25T09:12:38.822Z,102077.81
2023-01-25T09:15:40.758Z,102071.56
2023-01-25T09:18:55.849Z,102072.00
2023-01-25T09:21:57.847Z,102064.94
2023-01-25T09:25:12.902Z,102064.28
2023-01-25T09:28:29.718Z,102059.97
2023-01-25T09:31:46.897Z,102059.63
2023-01-25T09:34:55.621Z,102051.91
2023-01-25T09:38:03.856Z,102063.22
2023-01-25T09:41:39.840Z,102066.44
2023-01-25T09:45:06.435Z,102064.16
2023-01-25T09:48:40.884Z,102057.81
2023-01-25T09:52:22.806Z,102043.94
2023-01-25T09:55:33.344Z,102041.62
2023-01-25T09:58:52.955Z,102033.34
2023-01-25T10:02:32.522Z,102033.19
2023-01-25T10:05:51.849Z,102022.19
2023-01-25T10:09:31.830Z,102021.66
2023-01-25T10:12:40.877Z,102018.31
2023-01-25T10:15:56.840Z,102004.47
2023-01-25T10:19:38.861Z,101997.47
2023-01-25T10:22:49.994Z,101994.34
2023-01-25T10:32:55.913Z,101984.16
2023-01-25T10:36:08.818Z,101989.25
2023-01-25T10:39:19.550Z,101979.91
2023-01-25T10:42:30.815Z,101978.09
2023-01-25T10:45:39.613Z,101972.66
2023-01-25T10:48:47.810Z,101974.22
2023-01-25T10:52:19.480Z,101963.56
2023-01-25T10:55:34.044Z,101956.97
2023-01-25T10:58:55.953Z,101956.53
2023-01-25T11:02:27.766Z,101960.13
2023-01-25T11:05:45.434Z,101950.84
2023-01-25T11:08:47.317Z,101949.94
2023-01-25T11:12:08.836Z,101940.75
2023-01-25T11:15:25.577Z,101939.91
2023-01-25T11:18:41.914Z,101931.25
2023-01-25T11:21:52.958Z,101927.22
2023-01-25T11:25:01.869Z,101921.41
2023-01-25T11:28:29.879Z,101914.97
2023-01-25T11:31:39.093Z,101906.50
2023-01-25T11:34:49.885Z,101903.25
2023-01-25T11:38:19.896Z,101901.88
2023-01-25T11:41:31.263Z,101892.72
2023-01-25T11:45:04.856Z,101884.34
2023-01-25T11:48:33.856Z,101870.09
2023-01-25T11:52:10.991Z,101867.97
2023-01-25T11:55:33.860Z,101853.59
2023-01-25T11:58:59.693Z,101845.53
2023-01-25T12:02:37.985Z,101844.66
2023-01-25T12:06:02.804Z,101833.06
2023-01-25T12:13:03.004Z,101832.38
2023-01-25T12:16:35.671Z,101826.87
2023-01-25T12:20:11.201Z,101819.94
2023-01-25T12:23:59.948Z,101812.16
2023-01-25T12:27:36.883Z,101805.47
2023-01-25T12:30:54.489Z,101810.81
2023-01-25T12:34:09.934Z,101813.37
2023-01-25T12:37:30.853Z,101802.91
2023-01-25T12:40:49.608Z,101801.59
2023-01-25T12:44:19.855Z,101797.50
2023-01-25T12:47:39.289Z,101806.19
2023-01-25T12:51:02.920Z,101795.53
2023-01-25T12:54:29.961Z,101792.25
2023-01-25T12:57:56.517Z,101793.72
2023-01-25T13:01:41.055Z,101784.69
2023-01-25T13:05:16.912Z,101781.19
2023-01-25T13:09:02.096Z,101783.16
2023-01-25T13:12:14.737Z,101781.44
2023-01-25T13:15:52.941Z,101767.50
2023-01-25T13:19:07.853Z,101763.72
2023-01-25T13:23:02.865Z,101759.28
2023-01-25T13:26:46.918Z,101758.06
2023-01-25T13:30:31.530Z,101760.81
2023-01-25T13:34:10.821Z,101754.28
2023-01-25T13:37:25.991Z,101746.00
2023-01-25T13:40:41.973Z,101750.22
2023-01-25T13:44:24.060Z,101752.03
2023-01-25T13:47:29.908Z,101745.59
2023-01-25T13:50:52.055Z,101750.06
2023-01-25T13:54:00.788Z,101747.41
2023-01-25T13:57:14.357Z,101748.34
2023-01-25T14:00:31.942Z,101738.31
2023-01-25T14:03:40.665Z,101734.69
2023-01-25T14:06:54.874Z,101737.00
2023-01-25T14:09:58.161Z,101737.75
2023-01-25T14:13:22.156Z,101731.84
2023-01-25T14:16:32.164Z,101722.31
2023-01-25T14:19:42.913Z,101726.84
2023-01-25T14:22:58.896Z,101734.34
2023-01-25T14:26:32.916Z,101730.47
2023-01-25T14:29:53.892Z,101730.03
2023-01-25T14:33:27.015Z,101732.09
2023-01-25T14:36:32.089Z,101727.38
2023-01-25T14:39:46.908Z,101729.94
2023-01-25T14:42:50.211Z,101729.59
2023-01-25T14:46:04.964Z,101726.09
2023-01-25T14:49:24.969Z,101730.03
2023-01-25T14:52:40.952Z,101716.69
2023-01-25T14:55:52.914Z,101725.47
2023-01-25T14:59:02.438Z,101730.38
2023-01-25T15:02:35.018Z,101719.09
2023-01-25T15:05:53.234Z,101718.00
2023-01-25T15:08:55.295Z,101713.69
2023-01-25T15:12:41.973Z,101709.75
2023-01-25T15:16:06.958Z,101712.31
2023-01-25T15:19:36.041Z,101711.47
2023-01-25T15:22:37.976Z,101701.31
2023-01-25T15:25:58.097Z,101712.50
2023-01-25T15:29:16.081Z,101715.59
2023-01-25T15:32:30.953Z,101706.50
2023-01-25T15:35:39.618Z,101706.50
2023-01-25T15:38:48.956Z,101707.00
2023-01-25T15:42:03.994Z,101701.84
2023-01-25T15:45:07.791Z,101711.91
2023-01-25T15:48:29.952Z,101715.41
2023-01-25T15:51:39.000Z,101710.31
2023-01-25T15:55:01.442Z,101711.63
2023-01-25T15:58:21.284Z,101712.34
2023-01-25T16:01:31.051Z,101712.44
2023-01-25T16:04:39.601Z,101710.69
2023-01-25T16:07:50.056Z,101704.75
2023-01-25T16:11:08.001Z,101692.72
2023-01-25T16:14:24.026Z,101695.56
2023-01-25T16:17:38.946Z,101695.16
2023-01-25T16:20:42.288Z,101693.16
2023-01-25T16:23:57.043Z,101692.72
2023-01-25T16:27:05.258Z,101694.78
2023-01-25T16:30:31.994Z,101691.00
2023-01-25T16:33:34.095Z,101688.44
2023-01-25T16:36:48.995Z,101691.31
2023-01-25T16:39:56.957Z,101685.25
2023-01-25T16:43:05.869Z,101690.06
2023-01-25T16:46:26.999Z,101691.28
2023-01-25T16:49:35.628Z,101690.50
2023-01-25T16:52:50.980Z,101688.59
2023-01-25T16:55:53.124Z,101692.03
2023-01-25T16:59:10.060Z,101685.16
2023-01-25T17:02:19.025Z,101682.94
2023-01-25T17:05:34.964Z,101678.25
2023-01-25T17:08:49.952Z,101680.50
2023-01-25T17:11:59.996Z,101671.06
2023-01-25T17:15:09.477Z,101672.28
2023-01-25T17:18:29.980Z,101673.63
2023-01-25T17:21:48.967Z,101672.94
2023-01-25T17:25:03.968Z,101649.78
2023-01-25T17:28:12.399Z,101664.22
2023-01-25T17:31:33.055Z,101665.66
2023-01-25T17:34:47.990Z,101671.78
2023-01-25T17:37:56.895Z,101664.56
2023-01-25T17:41:11.037Z,101651.75
2023-01-25T17:44:29.994Z,101651.59
2023-01-25T17:47:32.919Z,101645.31
2023-01-25T17:50:47.985Z,101649.50
2023-01-25T17:53:51.107Z,101646.44
2023-01-25T17:57:05.941Z,101635.00
2023-01-25T18:00:22.087Z,101628.91
2023-01-25T18:03:24.940Z,101634.91
2023-01-25T18:06:40.014Z,101616.63
2023-01-25T18:09:49.053Z,101630.44
2023-01-25T18:13:04.535Z,101622.38
2023-01-25T18:16:21.963Z,101618.84
2023-01-25T18:19:24.944Z,101620.31
2023-01-25T18:22:39.988Z,101619.87
2023-01-25T18:25:49.356Z,101624.78
2023-01-25T18:29:41.021Z,101618.41
2023-01-25T18:32:50.094Z,101624.88
2023-01-25T18:36:02.758Z,101618.31
2023-01-25T18:39:18.046Z,101616.13
2023-01-25T18:42:27.053Z,101602.44
2023-01-25T18:45:35.006Z,101597.75
2023-01-25T18:48:44.370Z,101595.31
2023-01-25T18:52:10.501Z,101587.25
2023-01-25T18:55:25.992Z,101583.72
2023-01-25T18:58:31.684Z,101581.06
2023-01-25T19:01:47.044Z,101578.16
2023-01-25T19:04:49.362Z,101570.31
2023-01-25T19:08:05.064Z,101568.09
2023-01-25T19:11:17.034Z,101573.19
2023-01-25T19:14:26.596Z,101567.84
2023-01-25T19:17:35.106Z,101555.72
2023-01-25T19:20:46.440Z,101555.72
2023-01-25T19:23:55.067Z,101555.34
2023-01-25T19:27:17.999Z,101553.53
2023-01-25T19:30:31.745Z,101550.03
2023-01-25T19:33:42.078Z,101539.66
2023-01-25T19:36:59.170Z,101542.09
2023-01-25T19:40:18.044Z,101535.03
2023-01-25T19:43:27.050Z,101546.97
2023-01-25T19:46:37.464Z,101535.44
2023-01-25T19:49:46.018Z,101536.22
2023-01-25T19:52:55.269Z,101537.84
2023-01-25T19:56:12.639Z,101535.19
2023-01-25T19:59:26.029Z,101536.84
2023-01-25T20:02:35.146Z,101534.00
2023-01-25T20:05:44.056Z,101532.63
2023-01-25T20:09:01.101Z,101527.31
2023-01-25T20:12:17.065Z,101522.16
2023-01-25T20:15:26.050Z,101522.69
2023-01-25T20:18:36.823Z,101519.22
2023-01-25T20:21:47.049Z,101516.31
2023-01-25T20:24:56.075Z,101507.28
2023-01-25T20:28:12.056Z,101513.47
2023-01-25T20:31:37.143Z,101504.44
2023-01-25T20:34:54.034Z,101499.28
2023-01-25T20:38:03.066Z,101502.41
2023-01-25T20:41:15.362Z,101491.13
2023-01-25T20:44:24.096Z,101484.47
2023-01-25T20:47:39.067Z,101489.25
2023-01-25T20:50:42.843Z,101485.34
2023-01-25T20:53:59.045Z,101482.28
2023-01-25T20:57:08.193Z,101478.91
2023-01-25T21:00:18.038Z,101484.03
2023-01-25T21:03:29.737Z,101469.00
2023-01-25T21:06:46.078Z,101462.75
2023-01-25T21:10:01.116Z,101464.97
2023-01-25T21:13:09.787Z,101455.75
2023-01-25T21:16:25.084Z,101461.16
2023-01-25T21:19:42.048Z,101454.69
2023-01-25T21:22:51.094Z,101445.09
2023-01-25T21:26:00.773Z,101448.13
2023-01-25T21:29:16.074Z,101444.69
2023-01-25T21:32:31.074Z,101438.16
2023-01-25T21:35:33.128Z,101446.22
2023-01-25T21:38:51.021Z,101440.22
2023-01-25T21:41:59.980Z,101437.16
2023-01-25T21:45:08.208Z,101438.78
2023-01-25T21:48:23.073Z,101434.88
2023-01-25T21:51:32.053Z,101431.28
2023-01-25T21:54:47.084Z,101420.47
2023-01-25T21:57:56.087Z,101430.16
2023-01-25T22:01:05.437Z,101422.38
2023-01-25T22:04:14.077Z,101414.62
2023-01-25T22:07:22.713Z,101416.66
2023-01-25T22:10:37.069Z,101419.16
2023-01-25T22:13:40.008Z,101410.56
2023-01-25T22:16:56.203Z,101407.16
2023-01-25T22:19:58.226Z,101403.94
2023-01-25T22:23:14.060Z,101401.31
2023-01-25T22:26:25.060Z,101396.59
2023-01-25T22:29:40.409Z,101396.66
2023-01-25T22:32:49.120Z,101394.31
2023-01-25T22:36:04.064Z,101389.25
2023-01-25T22:39:13.176Z,101395.25
2023-01-25T22:42:28.102Z,101384.34
2023-01-25T22:45:30.014Z,101387.88
2023-01-25T22:48:45.156Z,101380.94
2023-01-25T22:51:46.928Z,101377.03
2023-01-25T22:55:02.120Z,101374.16
2023-01-25T22:58:11.103Z,101375.09
2023-01-25T23:01:23.297Z,101368.06
2023-01-25T23:04:32.161Z,101366.94
2023-01-25T23:07:40.765Z,101365.03
2023-01-25T23:10:50.096Z,101356.28
2023-01-25T23:14:06.108Z,101358.94
2023-01-25T23:17:14.758Z,101353.81
2023-01-25T23:20:25.179Z,101348.28
2023-01-25T23:23:33.861Z,101353.59
2023-01-25T23:26:43.159Z,101356.38
2023-01-25T23:29:58.403Z,101348.94
2023-01-25T23:33:07.132Z,101343.72
2023-01-25T23:36:28.122Z,101343.72
2023-01-25T23:39:29.959Z,101334.97
2023-01-25T23:42:46.114Z,101329.34
2023-01-25T23:45:47.910Z,101319.47
2023-01-25T23:49:03.132Z,101325.47
2023-01-25T23:52:12.204Z,101315.03
2023-01-25T23:55:20.699Z,101317.75
2023-01-25T23:58:30.130Z,101308.16
